createdAt,value
2023-01-09T00:01:46.743Z,54.90
2023-01-09T00:04:14.953Z,48.55
2023-01-09T00:06:45.340Z,33.92
2023-01-09T00:09:13.248Z,24.82
2023-01-09T00:11:41.186Z,26.12
2023-01-09T00:14:11.055Z,26.05
2023-01-09T00:16:39.050Z,21.80
2023-01-09T00:19:07.202Z,16.85
2023-01-09T00:21:36.715Z,18.95
2023-01-09T00:24:06.099Z,15.43
2023-01-09T00:26:34.165Z,14.38
2023-01-09T00:29:02.767Z,14.10
2023-01-09T00:31:30.817Z,14.68
2023-01-09T00:34:05.581Z,15.83
2023-01-09T00:36:33.677Z,17.55
2023-01-09T00:39:01.754Z,14.83
2023-01-09T00:41:34.894Z,18.05
2023-01-09T00:44:25.865Z,15.80
2023-01-09T00:46:59.029Z,17.67
2023-01-09T00:49:30.692Z,19.27
2023-01-09T00:51:58.985Z,16.97
2023-01-09T00:54:29.586Z,19.20
2023-01-09T00:56:58.849Z,14.20
2023-01-09T00:59:27.613Z,14.03
2023-01-09T01:01:56.098Z,14.03
2023-01-09T01:04:38.101Z,20.68
2023-01-09T01:07:25.070Z,18.73
2023-01-09T01:09:52.968Z,17.50
2023-01-09T01:12:21.029Z,18.37
2023-01-09T01:14:48.831Z,15.35
2023-01-09T01:17:16.859Z,13.18
2023-01-09T01:19:45.098Z,16.40
2023-01-09T01:22:13.031Z,11.00
2023-01-09T01:24:41.619Z,11.57
2023-01-09T01:27:09.872Z,12.40
2023-01-09T01:29:37.713Z,13.75
2023-01-09T01:32:05.785Z,12.10
2023-01-09T01:34:33.895Z,13.98
2023-01-09T01:37:01.847Z,14.43
2023-01-09T01:39:29.857Z,13.70
2023-01-09T01:41:58.046Z,13.08
2023-01-09T01:45:00.600Z,12.98
2023-01-09T01:47:36.819Z,12.82
2023-01-09T01:50:24.913Z,12.63
2023-01-09T01:53:01.174Z,15.28
2023-01-09T01:55:29.275Z,15.50
2023-01-09T01:58:01.263Z,17.50
2023-01-09T02:00:39.017Z,23.22
2023-01-09T02:03:07.624Z,25.20
2023-01-09T02:05:38.046Z,29.42
2023-01-09T02:08:08.095Z,28.85
2023-01-09T02:10:37.925Z,24.23
2023-01-09T02:13:08.084Z,16.70
2023-01-09T02:15:50.735Z,14.13
2023-01-09T02:18:38.942Z,12.95
2023-01-09T02:21:24.333Z,9.93
2023-01-09T02:24:36.014Z,10.45
2023-01-09T02:27:42.723Z,11.57
2023-01-09T02:30:27.552Z,8.88
2023-01-09T02:33:09.382Z,12.03
2023-01-09T02:35:51.281Z,11.03
2023-01-09T02:38:53.002Z,12.03
2023-01-09T02:41:46.466Z,11.70
2023-01-09T02:44:24.644Z,14.75
2023-01-09T02:47:20.492Z,10.50
2023-01-09T02:50:00.035Z,12.25
2023-01-09T02:52:44.494Z,12.35
2023-01-09T02:55:29.831Z,13.10
2023-01-09T02:58:10.584Z,11.25
2023-01-09T03:01:18.619Z,10.40
2023-01-09T03:04:16.387Z,12.55
2023-01-09T03:07:10.389Z,11.97
2023-01-09T03:09:40.980Z,11.33
2023-01-09T03:12:20.209Z,14.13
2023-01-09T03:14:51.824Z,14.18
2023-01-09T03:17:27.811Z,10.05
2023-01-09T03:19:57.619Z,9.50
2023-01-09T03:22:25.704Z,7.85
2023-01-09T03:24:53.849Z,11.03
2023-01-09T03:27:22.333Z,8.78
2023-01-09T03:29:52.179Z,8.73
2023-01-09T03:32:23.608Z,10.55
2023-01-09T03:34:51.742Z,10.78
2023-01-09T03:37:19.697Z,12.98
2023-01-09T03:39:47.757Z,10.43
2023-01-09T03:42:15.527Z,11.50
2023-01-09T03:44:43.516Z,15.43
2023-01-09T03:47:11.433Z,17.50
2023-01-09T03:49:39.368Z,15.83
2023-01-09T03:52:07.249Z,14.40
2023-01-09T03:54:35.121Z,11.75
2023-01-09T03:57:03.270Z,11.80
2023-01-09T03:59:31.277Z,10.32
2023-01-09T04:02:01.007Z,12.13
2023-01-09T04:04:29.167Z,12.00
2023-01-09T04:06:57.336Z,13.22
2023-01-09T04:09:25.238Z,13.68
2023-01-09T04:11:53.201Z,14.83
2023-01-09T04:14:21.454Z,15.65
2023-01-09T04:16:49.401Z,11.12
2023-01-09T04:19:17.336Z,11.65
2023-01-09T04:21:45.464Z,12.07
2023-01-09T04:24:13.571Z,11.93
2023-01-09T04:26:44.325Z,13.93
2023-01-09T04:29:12.316Z,14.78
2023-01-09T04:31:40.584Z,13.30
2023-01-09T04:34:08.910Z,12.80
2023-01-09T04:36:39.197Z,11.00
2023-01-09T04:39:12.367Z,10.90
2023-01-09T04:41:50.713Z,8.98
2023-01-09T04:44:21.994Z,13.60
2023-01-09T04:46:50.313Z,9.98
2023-01-09T04:49:22.180Z,10.13
2023-01-09T04:51:50.469Z,9.55
2023-01-09T04:54:22.862Z,10.40
2023-01-09T04:56:51.420Z,9.28
2023-01-09T04:59:19.693Z,10.88
2023-01-09T05:01:47.781Z,12.60
2023-01-09T05:08:35.436Z,16.45
2023-01-09T05:11:04.135Z,25.50
2023-01-09T05:13:36.663Z,25.50
2023-01-09T05:16:09.139Z,25.72
2023-01-09T05:18:46.745Z,24.82
2023-01-09T05:21:21.017Z,20.50
2023-01-09T05:23:49.726Z,19.13
2023-01-09T05:26:26.726Z,18.52
2023-01-09T05:28:56.542Z,20.10
2023-01-09T05:31:29.808Z,17.45
2023-01-09T05:33:59.472Z,16.32
2023-01-09T05:36:27.863Z,14.75
2023-01-09T05:38:57.336Z,13.40
2023-01-09T05:41:25.898Z,14.13
2023-01-09T05:43:53.866Z,19.27
2023-01-09T05:46:22.179Z,17.95
2023-01-09T05:48:49.853Z,17.25
2023-01-09T05:51:17.991Z,18.62
2023-01-09T05:53:46.011Z,21.65
2023-01-09T05:56:14.068Z,26.17
2023-01-09T05:58:41.967Z,25.70
2023-01-09T06:01:09.935Z,33.75
2023-01-09T06:03:37.796Z,32.85
2023-01-09T06:06:06.289Z,32.03
2023-01-09T06:08:34.171Z,28.17
2023-01-09T06:11:01.990Z,26.80
2023-01-09T06:13:29.499Z,24.65
2023-01-09T06:15:57.318Z,31.75
2023-01-09T06:18:25.340Z,29.02
2023-01-09T06:20:53.135Z,28.90
2023-01-09T06:23:20.579Z,22.15
2023-01-09T06:25:48.676Z,25.60
2023-01-09T06:28:16.334Z,22.80
2023-01-09T06:30:44.100Z,23.73
2023-01-09T06:33:11.767Z,20.77
2023-01-09T06:35:39.633Z,20.68
2023-01-09T06:38:07.560Z,18.80
2023-01-09T06:40:35.540Z,24.10
2023-01-09T06:43:03.384Z,23.05
2023-01-09T06:45:31.368Z,23.15
2023-01-09T06:47:59.432Z,23.18
2023-01-09T06:50:28.459Z,22.93
2023-01-09T06:52:56.480Z,23.15
2023-01-09T06:55:25.868Z,27.65
2023-01-09T06:57:54.206Z,26.02
2023-01-09T07:00:22.575Z,25.02
2023-01-09T07:02:50.612Z,21.27
2023-01-09T07:05:18.551Z,20.90
2023-01-09T07:07:46.325Z,21.82
2023-01-09T07:10:15.222Z,26.73
2023-01-09T07:12:43.176Z,26.68
2023-01-09T07:15:11.389Z,27.05
2023-01-09T07:17:39.282Z,37.58
2023-01-09T07:20:08.700Z,83.07
2023-01-09T07:22:36.372Z,41.77
2023-01-09T07:25:04.954Z,37.70
2023-01-09T07:27:32.655Z,41.75
2023-01-09T07:30:00.354Z,35.55
2023-01-09T07:32:28.331Z,35.03
2023-01-09T07:34:55.967Z,34.90
2023-01-09T07:37:23.642Z,29.72
2023-01-09T07:39:51.612Z,30.48
2023-01-09T07:42:19.557Z,31.20
2023-01-09T07:44:47.147Z,28.05
2023-01-09T07:47:15.511Z,27.52
2023-01-09T07:49:43.449Z,24.70
2023-01-09T07:52:11.184Z,22.15
2023-01-09T07:54:38.864Z,19.35
2023-01-09T07:57:06.428Z,19.27
2023-01-09T07:59:33.960Z,20.10
2023-01-09T08:02:03.944Z,18.15
2023-01-09T08:04:31.661Z,20.43
2023-01-09T08:06:59.499Z,23.20
2023-01-09T08:09:27.436Z,30.92
2023-01-09T08:11:57.668Z,24.43
2023-01-09T08:14:25.558Z,21.50
2023-01-09T08:16:53.708Z,22.32
2023-01-09T08:19:21.616Z,22.85
2023-01-09T08:21:49.878Z,22.82
2023-01-09T08:24:17.824Z,22.32
2023-01-09T08:26:45.863Z,27.70
2023-01-09T08:29:13.947Z,30.50
2023-01-09T08:31:41.913Z,26.55
2023-01-09T08:34:09.825Z,30.10
2023-01-09T08:36:37.853Z,22.20
2023-01-09T08:39:05.765Z,18.32
2023-01-09T08:41:51.499Z,15.60
2023-01-09T08:44:37.824Z,17.25
2023-01-09T08:47:05.835Z,18.73
2023-01-09T08:49:36.687Z,16.27
2023-01-09T08:52:06.403Z,15.80
2023-01-09T08:54:36.686Z,15.35
2023-01-09T08:57:04.799Z,15.38
2023-01-09T08:59:34.031Z,15.43
2023-01-09T09:02:01.760Z,14.60
2023-01-09T09:04:29.663Z,16.32
2023-01-09T09:06:57.351Z,13.65
2023-01-09T09:09:25.317Z,17.02
2023-01-09T09:11:54.934Z,15.60
2023-01-09T09:14:41.404Z,16.90
2023-01-09T09:17:09.141Z,18.82
2023-01-09T09:19:38.741Z,17.52
2023-01-09T09:22:06.568Z,19.75
2023-01-09T09:24:34.281Z,16.55
2023-01-09T09:27:02.147Z,20.70
2023-01-09T09:29:30.032Z,15.25
2023-01-09T09:31:59.955Z,16.02
2023-01-09T09:34:27.332Z,16.32
2023-01-09T09:36:55.150Z,18.40
2023-01-09T09:39:22.898Z,15.45
2023-01-09T09:42:26.893Z,20.08
2023-01-09T09:45:19.872Z,15.78
2023-01-09T09:48:05.484Z,15.10
2023-01-09T09:51:04.165Z,16.02
2023-01-09T09:53:40.125Z,20.95
2023-01-09T09:56:12.253Z,15.98
2023-01-09T09:58:48.386Z,17.17
2023-01-09T10:01:23.882Z,16.87
2023-01-09T10:06:32.221Z,14.30
2023-01-09T10:09:45.535Z,13.38
2023-01-09T10:12:33.938Z,15.65
2023-01-09T10:15:17.572Z,16.87
2023-01-09T10:18:07.725Z,16.32
2023-01-09T10:20:55.110Z,19.48
2023-01-09T10:23:57.921Z,14.80
2023-01-09T10:26:43.288Z,18.90
2023-01-09T10:29:24.623Z,12.35
2023-01-09T10:32:24.920Z,16.00
2023-01-09T10:35:06.872Z,20.25
2023-01-09T10:37:39.032Z,13.70
2023-01-09T10:40:18.193Z,15.05
2023-01-09T10:42:59.987Z,13.80
2023-01-09T10:45:53.934Z,14.30
2023-01-09T10:48:34.594Z,10.28
2023-01-09T10:51:07.461Z,11.78
2023-01-09T10:53:39.525Z,14.65
2023-01-09T10:56:18.807Z,11.38
2023-01-09T10:58:47.170Z,20.70
2023-01-09T11:01:15.026Z,19.40
2023-01-09T11:03:43.128Z,31.50
2023-01-09T11:06:25.649Z,15.20
2023-01-09T11:08:57.104Z,21.50
2023-01-09T11:11:35.882Z,9.50
2023-01-09T11:14:30.133Z,17.48
2023-01-09T11:17:01.881Z,17.32
2023-01-09T11:19:32.839Z,16.27
2023-01-09T11:22:11.416Z,20.35
2023-01-09T11:24:39.131Z,9.18
2023-01-09T11:27:18.920Z,12.70
2023-01-09T11:30:08.586Z,19.92
2023-01-09T11:32:36.806Z,9.38
2023-01-09T11:35:07.900Z,14.38
2023-01-09T11:37:38.883Z,20.95
2023-01-09T11:40:12.235Z,10.38
2023-01-09T11:42:52.089Z,12.15
2023-01-09T11:45:25.458Z,15.13
2023-01-09T11:47:53.583Z,11.65
2023-01-09T11:50:25.875Z,8.78
2023-01-09T11:53:13.314Z,8.33
2023-01-09T11:55:43.332Z,9.65
2023-01-09T11:58:21.470Z,10.95
2023-01-09T12:01:13.232Z,9.73
2023-01-09T12:04:11.176Z,14.90
2023-01-09T12:07:14.432Z,32.73
2023-01-09T12:10:07.542Z,16.73
2023-01-09T12:13:01.493Z,11.28
2023-01-09T12:16:01.974Z,14.38
2023-01-09T12:18:48.251Z,9.40
2023-01-09T12:21:43.083Z,10.68
2023-01-09T12:24:53.184Z,13.53
2023-01-09T12:27:38.054Z,12.10
2023-01-09T12:30:37.924Z,20.35
2023-01-09T12:33:34.983Z,19.80
2023-01-09T12:36:26.631Z,19.05
2023-01-09T12:39:08.781Z,20.50
2023-01-09T12:41:57.593Z,21.07
2023-01-09T12:44:36.870Z,25.35
2023-01-09T12:47:30.696Z,31.12
2023-01-09T12:50:16.147Z,28.02
2023-01-09T12:53:07.832Z,24.87
2023-01-09T12:55:46.816Z,21.45
2023-01-09T12:58:39.807Z,32.60
2023-01-09T13:01:18.631Z,32.45
2023-01-09T13:04:11.611Z,24.75
2023-01-09T13:06:44.657Z,32.42
2023-01-09T13:09:36.279Z,27.93
2023-01-09T13:12:12.529Z,27.75
2023-01-09T13:15:09.828Z,29.52
2023-01-09T13:17:51.286Z,28.35
2023-01-09T13:20:28.055Z,29.67
2023-01-09T13:22:56.717Z,37.85
2023-01-09T13:25:42.909Z,34.80
2023-01-09T13:28:33.936Z,52.13
2023-01-09T13:31:35.998Z,49.42
2023-01-09T13:34:17.709Z,37.03
2023-01-09T13:36:43.360Z,32.05
2023-01-09T13:39:22.322Z,40.85
2023-01-09T13:42:19.078Z,35.78
2023-01-09T13:44:50.210Z,39.08
2023-01-09T13:47:28.091Z,34.27
2023-01-09T13:50:13.486Z,32.95
2023-01-09T13:52:44.879Z,36.70
2023-01-09T13:55:18.039Z,43.33
2023-01-09T13:58:11.223Z,34.25
2023-01-09T14:00:45.409Z,34.25
2023-01-09T14:03:25.955Z,36.73
2023-01-09T14:06:02.518Z,33.05
2023-01-09T14:08:32.868Z,35.52
2023-01-09T14:11:05.380Z,29.20
2023-01-09T14:13:40.348Z,44.40
2023-01-09T14:16:23.045Z,34.38
2023-01-09T14:19:07.074Z,116.33
2023-01-09T14:21:52.355Z,225.87
2023-01-09T14:24:28.382Z,97.97
2023-01-09T14:27:00.140Z,84.95
2023-01-09T14:29:43.700Z,70.30
2023-01-09T14:32:33.615Z,64.30
2023-01-09T14:35:21.548Z,37.42
2023-01-09T14:38:03.718Z,35.05
2023-01-09T14:40:33.215Z,33.30
2023-01-09T14:43:06.699Z,26.52
2023-01-09T14:45:39.234Z,28.62
2023-01-09T14:48:11.324Z,24.67
2023-01-09T14:50:54.030Z,25.20
2023-01-09T14:53:32.241Z,29.98
2023-01-09T14:56:06.827Z,30.88
2023-01-09T14:58:37.495Z,33.28
2023-01-09T15:01:18.195Z,33.55
2023-01-09T15:03:59.197Z,26.05
2023-01-09T15:06:37.558Z,21.97
2023-01-09T15:09:31.028Z,34.20
2023-01-09T15:12:06.512Z,34.58
2023-01-09T15:14:39.423Z,30.00
2023-01-09T15:17:28.441Z,27.35
2023-01-09T15:19:58.645Z,24.25
2023-01-09T15:22:40.357Z,26.27
2023-01-09T15:25:38.765Z,31.17
2023-01-09T15:28:27.898Z,26.05
2023-01-09T15:31:06.849Z,25.88
2023-01-09T15:33:38.627Z,34.25
2023-01-09T15:36:11.895Z,36.55
2023-01-09T15:38:42.694Z,41.75
2023-01-09T15:41:20.096Z,36.17
2023-01-09T15:43:47.957Z,33.08
2023-01-09T15:46:16.069Z,33.15
2023-01-09T15:48:43.973Z,33.67
2023-01-09T15:51:17.871Z,33.58
2023-01-09T15:53:49.810Z,31.25
2023-01-09T15:56:32.717Z,41.65
2023-01-09T15:59:04.042Z,44.83
2023-01-09T16:01:34.318Z,50.60
2023-01-09T16:04:12.701Z,51.55
2023-01-09T16:06:51.896Z,59.85
2023-01-09T16:09:30.911Z,54.95
2023-01-09T16:12:03.001Z,56.30
2023-01-09T16:14:37.830Z,52.43
2023-01-09T16:17:11.184Z,49.03
2023-01-09T18:28:51.320Z,31.75
2023-01-09T18:31:23.888Z,30.90
2023-01-09T18:33:54.321Z,35.92
2023-01-09T18:36:29.399Z,36.90
2023-01-09T18:38:59.927Z,32.90
2023-01-09T18:41:28.858Z,32.90
2023-01-09T18:43:59.355Z,36.38
2023-01-09T18:46:29.426Z,31.75
2023-01-09T18:49:00.878Z,34.63
2023-01-09T18:51:30.103Z,35.48
2023-01-09T18:53:59.186Z,34.67
2023-01-09T18:56:27.183Z,32.30
2023-01-09T18:58:59.179Z,33.83
2023-01-09T19:01:28.886Z,26.85
2023-01-09T19:04:00.065Z,33.40
2023-01-09T19:06:29.817Z,39.10
2023-01-09T19:09:01.291Z,35.20
2023-01-09T19:11:30.960Z,32.98
2023-01-09T19:13:58.931Z,31.40
2023-01-09T19:16:26.995Z,38.90
2023-01-09T19:18:54.907Z,32.83
2023-01-09T19:21:25.100Z,35.60
2023-01-09T19:23:52.857Z,32.93
2023-01-09T19:26:24.365Z,32.10
2023-01-09T19:28:56.869Z,27.80
2023-01-09T19:31:27.816Z,35.88
2023-01-09T19:33:58.167Z,44.65
2023-01-09T19:36:27.796Z,43.35
2023-01-09T19:39:00.487Z,39.73
2023-01-09T19:41:29.148Z,33.63
2023-01-09T19:43:58.949Z,30.10
2023-01-09T19:46:26.841Z,33.10
2023-01-09T19:48:58.640Z,33.02
2023-01-09T19:51:28.628Z,30.90
2023-01-09T19:56:33.568Z,29.12
2023-01-09T19:59:04.587Z,29.75
2023-01-09T20:01:37.151Z,31.65
2023-01-09T20:04:14.579Z,37.30
2023-01-09T20:06:48.249Z,40.98
2023-01-09T20:09:20.797Z,44.38
2023-01-09T20:11:52.179Z,43.83
2023-01-09T20:14:23.226Z,51.65
2023-01-09T20:17:00.400Z,56.25
2023-01-09T20:19:39.300Z,59.93
2023-01-09T20:22:13.763Z,61.55
2023-01-09T20:24:43.594Z,57.00
2023-01-09T20:27:16.173Z,52.62
2023-01-09T20:29:44.615Z,45.70
2023-01-09T20:32:16.683Z,47.00
2023-01-09T20:34:52.106Z,39.85
2023-01-09T20:37:39.695Z,37.60
2023-01-09T20:48:27.615Z,39.83
2023-01-09T20:51:16.115Z,36.20
2023-01-09T20:57:22.186Z,41.58
2023-01-09T20:59:59.150Z,35.03
2023-01-09T21:02:28.893Z,30.85
2023-01-09T21:04:57.803Z,37.88
2023-01-09T21:07:30.006Z,38.13
2023-01-09T21:09:58.196Z,36.05
2023-01-09T21:12:35.338Z,31.40
2023-01-09T21:15:11.359Z,32.80
2023-01-09T21:17:41.783Z,29.05
2023-01-09T21:20:14.469Z,27.02
2023-01-09T21:22:46.613Z,29.42
2023-01-09T21:25:17.174Z,27.75
2023-01-09T21:27:50.708Z,29.67
2023-01-09T21:30:19.588Z,33.88
2023-01-09T21:32:47.732Z,32.55
2023-01-09T21:35:16.127Z,31.82
2023-01-09T21:37:46.304Z,29.65
2023-01-09T21:40:17.645Z,31.02
2023-01-09T21:43:03.856Z,25.48
2023-01-09T21:45:51.686Z,30.17
2023-01-09T21:48:23.590Z,30.37
2023-01-09T21:50:51.943Z,28.57
2023-01-09T21:53:24.881Z,26.10
2023-01-09T21:55:56.235Z,22.13
2023-01-09T21:58:24.636Z,19.30
2023-01-09T22:01:00.041Z,22.80
2023-01-09T22:03:31.359Z,25.97
2023-01-09T22:09:23.533Z,28.05
2023-01-09T22:12:04.759Z,23.38
2023-01-09T22:14:34.720Z,21.27
2023-01-09T22:17:09.369Z,20.55
2023-01-09T22:19:45.268Z,18.32
2023-01-09T22:22:17.051Z,21.85
2023-01-09T22:24:45.444Z,22.48
2023-01-09T22:27:13.769Z,26.25
2023-01-09T22:29:42.196Z,19.32
2023-01-09T22:32:10.520Z,20.82
2023-01-09T22:34:38.567Z,22.82
2023-01-09T22:37:06.663Z,24.05
2023-01-09T22:39:34.824Z,20.17
2023-01-09T22:42:02.961Z,19.60
2023-01-09T22:44:31.088Z,18.27
2023-01-09T22:47:00.093Z,17.40
2023-01-09T22:49:33.443Z,23.10
2023-01-09T22:51:58.456Z,27.93
2023-01-09T22:54:26.653Z,24.12
2023-01-09T22:56:54.613Z,23.85
2023-01-09T22:59:24.018Z,21.25
2023-01-09T23:01:54.076Z,25.82
2023-01-09T23:04:22.183Z,31.12
2023-01-09T23:06:50.949Z,30.08
2023-01-09T23:09:19.089Z,24.63
2023-01-09T23:12:02.207Z,20.35
2023-01-09T23:14:35.604Z,17.55
2023-01-09T23:19:35.122Z,17.10
2023-01-09T23:22:04.658Z,15.48
2023-01-09T23:24:33.521Z,18.45
2023-01-09T23:27:04.239Z,19.45
2023-01-09T23:29:34.205Z,17.48
2023-01-09T23:32:08.568Z,21.17
2023-01-09T23:34:37.520Z,19.17
2023-01-09T23:37:08.164Z,17.02
2023-01-09T23:39:36.483Z,17.60
2023-01-09T23:42:23.156Z,17.00
2023-01-09T23:44:54.790Z,17.02
2023-01-09T23:47:22.985Z,17.35
2023-01-09T23:49:51.301Z,16.35
2023-01-09T23:52:19.460Z,14.53
2023-01-09T23:54:47.578Z,13.68
2023-01-09T23:57:15.671Z,15.53
2023-01-09T23:59:43.871Z,16.80
